sensor_id;sensor_type;location;lat;lon;timestamp;P1;durP1;ratioP1;P2;durP2;ratioP2
18933;SDS011;9599;53.706;10.384;2022-11-20T00:01:03;7.70;;;5.30;;
18933;SDS011;9599;53.706;10.384;2022-11-20T00:03:31;8.60;;;5.37;;
18933;SDS011;9599;53.706;10.384;2022-11-20T00:06:01;9.17;;;5.30;;
18933;SDS011;9599;53.706;10.384;2022-11-20T00:08:29;11.53;;;6.87;;
18933;SDS011;9599;53.706;10.384;2022-11-20T00:11:01;11.03;;;6.93;;
18933;SDS011;9599;53.706;10.384;2022-11-20T00:13:30;9.20;;;6.37;;
18933;SDS011;9599;53.706;10.384;2022-11-20T00:15:58;8.57;;;6.30;;
18933;SDS011;9599;53.706;10.384;2022-11-20T00:18:26;10.00;;;6.57;;
18933;SDS011;9599;53.706;10.384;2022-11-20T00:20:59;9.03;;;6.43;;
18933;SDS011;9599;53.706;10.384;2022-11-20T00:23:29;8.57;;;5.53;;
18933;SDS011;9599;53.706;10.384;2022-11-20T00:26:00;9.47;;;5.43;;
18933;SDS011;9599;53.706;10.384;2022-11-20T00:28:28;8.27;;;5.93;;
18933;SDS011;9599;53.706;10.384;2022-11-20T00:31:00;9.30;;;6.50;;
18933;SDS011;9599;53.706;10.384;2022-11-20T00:33:29;9.33;;;5.60;;
18933;SDS011;9599;53.706;10.384;2022-11-20T00:36:01;10.57;;;5.97;;
18933;SDS011;9599;53.706;10.384;2022-11-20T00:38:31;10.47;;;6.67;;
18933;SDS011;9599;53.706;10.384;2022-11-20T00:41:00;9.60;;;5.90;;
18933;SDS011;9599;53.706;10.384;2022-11-20T00:43:29;8.33;;;5.40;;
18933;SDS011;9599;53.706;10.384;2022-11-20T00:45:57;7.70;;;5.70;;
18933;SDS011;9599;53.706;10.384;2022-11-20T00:48:25;8.23;;;5.67;;
18933;SDS011;9599;53.706;10.384;2022-11-20T00:50:54;9.30;;;5.80;;
18933;SDS011;9599;53.706;10.384;2022-11-20T00:53:23;8.10;;;5.70;;
18933;SDS011;9599;53.706;10.384;2022-11-20T00:55:52;7.37;;;5.57;;
18933;SDS011;9599;53.706;10.384;2022-11-20T00:58:21;7.67;;;5.70;;
18933;SDS011;9599;53.706;10.384;2022-11-20T01:00:50;9.57;;;5.83;;
18933;SDS011;9599;53.706;10.384;2022-11-20T01:03:18;8.50;;;5.57;;
18933;SDS011;9599;53.706;10.384;2022-11-20T01:05:52;8.67;;;5.93;;
18933;SDS011;9599;53.706;10.384;2022-11-20T01:08:20;7.67;;;5.77;;
18933;SDS011;9599;53.706;10.384;2022-11-20T01:10:49;8.60;;;5.70;;
18933;SDS011;9599;53.706;10.384;2022-11-20T01:13:17;7.80;;;5.33;;
18933;SDS011;9599;53.706;10.384;2022-11-20T01:16:03;9.73;;;5.73;;
18933;SDS011;9599;53.706;10.384;2022-11-20T01:18:31;9.90;;;5.70;;
18933;SDS011;9599;53.706;10.384;2022-11-20T01:21:03;10.10;;;5.57;;
18933;SDS011;9599;53.706;10.384;2022-11-20T01:23:32;8.83;;;5.67;;
18933;SDS011;9599;53.706;10.384;2022-11-20T01:26:02;8.87;;;6.37;;
18933;SDS011;9599;53.706;10.384;2022-11-20T01:28:32;8.87;;;5.97;;
18933;SDS011;9599;53.706;10.384;2022-11-20T01:31:00;10.57;;;6.43;;
18933;SDS011;9599;53.706;10.384;2022-11-20T01:33:28;9.70;;;6.20;;
18933;SDS011;9599;53.706;10.384;2022-11-20T01:36:03;8.13;;;5.80;;
18933;SDS011;9599;53.706;10.384;2022-11-20T01:38:31;8.03;;;5.70;;
18933;SDS011;9599;53.706;10.384;2022-11-20T01:40:59;8.37;;;5.40;;
18933;SDS011;9599;53.706;10.384;2022-11-20T01:43:29;8.70;;;5.63;;
18933;SDS011;9599;53.706;10.384;2022-11-20T01:45:56;9.30;;;6.10;;
18933;SDS011;9599;53.706;10.384;2022-11-20T01:48:28;8.27;;;5.70;;
18933;SDS011;9599;53.706;10.384;2022-11-20T01:51:00;8.77;;;5.50;;
18933;SDS011;9599;53.706;10.384;2022-11-20T01:53:31;11.20;;;6.33;;
18933;SDS011;9599;53.706;10.384;2022-11-20T01:56:03;8.90;;;5.90;;
18933;SDS011;9599;53.706;10.384;2022-11-20T01:58:36;10.37;;;5.83;;
18933;SDS011;9599;53.706;10.384;2022-11-20T02:01:09;10.20;;;5.70;;
18933;SDS011;9599;53.706;10.384;2022-11-20T02:03:37;9.27;;;5.70;;
18933;SDS011;9599;53.706;10.384;2022-11-20T02:06:07;9.77;;;6.17;;
18933;SDS011;9599;53.706;10.384;2022-11-20T02:08:39;11.43;;;6.30;;
18933;SDS011;9599;53.706;10.384;2022-11-20T02:11:07;8.93;;;6.00;;
18933;SDS011;9599;53.706;10.384;2022-11-20T02:13:37;11.13;;;6.17;;
18933;SDS011;9599;53.706;10.384;2022-11-20T02:16:16;9.43;;;6.10;;
18933;SDS011;9599;53.706;10.384;2022-11-20T02:18:48;11.03;;;6.47;;
18933;SDS011;9599;53.706;10.384;2022-11-20T02:21:20;9.83;;;6.67;;
18933;SDS011;9599;53.706;10.384;2022-11-20T02:23:56;9.53;;;6.23;;
18933;SDS011;9599;53.706;10.384;2022-11-20T02:26:27;8.57;;;6.67;;
18933;SDS011;9599;53.706;10.384;2022-11-20T02:28:57;10.43;;;6.67;;
18933;SDS011;9599;53.706;10.384;2022-11-20T02:31:27;9.50;;;6.30;;
18933;SDS011;9599;53.706;10.384;2022-11-20T02:33:55;8.37;;;6.07;;
18933;SDS011;9599;53.706;10.384;2022-11-20T02:36:24;9.93;;;6.23;;
18933;SDS011;9599;53.706;10.384;2022-11-20T02:38:54;11.87;;;6.63;;
18933;SDS011;9599;53.706;10.384;2022-11-20T02:41:30;9.57;;;6.13;;
18933;SDS011;9599;53.706;10.384;2022-11-20T02:43:59;10.03;;;6.70;;
18933;SDS011;9599;53.706;10.384;2022-11-20T02:46:27;13.00;;;6.87;;
18933;SDS011;9599;53.706;10.384;2022-11-20T02:48:55;10.47;;;6.63;;
18933;SDS011;9599;53.706;10.384;2022-11-20T02:51:23;11.10;;;6.97;;
18933;SDS011;9599;53.706;10.384;2022-11-20T02:53:51;11.43;;;7.00;;
18933;SDS011;9599;53.706;10.384;2022-11-20T02:56:19;10.53;;;6.73;;
18933;SDS011;9599;53.706;10.384;2022-11-20T02:58:48;10.77;;;6.60;;
18933;SDS011;9599;53.706;10.384;2022-11-20T03:01:16;9.20;;;5.93;;
18933;SDS011;9599;53.706;10.384;2022-11-20T03:03:44;12.03;;;7.30;;
18933;SDS011;9599;53.706;10.384;2022-11-20T03:06:14;12.87;;;7.30;;
18933;SDS011;9599;53.706;10.384;2022-11-20T03:08:42;11.27;;;6.90;;
18933;SDS011;9599;53.706;10.384;2022-11-20T03:11:10;10.77;;;6.53;;
18933;SDS011;9599;53.706;10.384;2022-11-20T03:13:38;8.60;;;6.00;;
18933;SDS011;9599;53.706;10.384;2022-11-20T03:16:09;14.17;;;6.53;;
18933;SDS011;9599;53.706;10.384;2022-11-20T03:18:38;10.40;;;6.57;;
18933;SDS011;9599;53.706;10.384;2022-11-20T03:21:07;10.67;;;6.60;;
18933;SDS011;9599;53.706;10.384;2022-11-20T03:23:36;13.13;;;6.70;;
18933;SDS011;9599;53.706;10.384;2022-11-20T03:26:12;10.73;;;6.90;;
18933;SDS011;9599;53.706;10.384;2022-11-20T03:28:45;10.03;;;6.10;;
18933;SDS011;9599;53.706;10.384;2022-11-20T03:31:16;10.10;;;6.37;;
18933;SDS011;9599;53.706;10.384;2022-11-20T03:33:45;11.97;;;7.00;;
18933;SDS011;9599;53.706;10.384;2022-11-20T03:36:14;9.13;;;6.50;;
18933;SDS011;9599;53.706;10.384;2022-11-20T03:38:42;10.23;;;6.63;;
18933;SDS011;9599;53.706;10.384;2022-11-20T03:41:11;11.27;;;6.90;;
18933;SDS011;9599;53.706;10.384;2022-11-20T03:43:40;12.27;;;6.87;;
18933;SDS011;9599;53.706;10.384;2022-11-20T03:46:08;8.97;;;6.20;;
18933;SDS011;9599;53.706;10.384;2022-11-20T03:48:37;10.03;;;6.57;;
18933;SDS011;9599;53.706;10.384;2022-11-20T03:51:06;12.27;;;6.93;;
18933;SDS011;9599;53.706;10.384;2022-11-20T03:53:35;10.73;;;6.20;;
18933;SDS011;9599;53.706;10.384;2022-11-20T03:56:03;10.13;;;6.50;;
18933;SDS011;9599;53.706;10.384;2022-11-20T03:58:32;10.40;;;6.30;;
18933;SDS011;9599;53.706;10.384;2022-11-20T04:01:04;9.40;;;6.40;;
18933;SDS011;9599;53.706;10.384;2022-11-20T04:03:33;12.30;;;6.93;;
18933;SDS011;9599;53.706;10.384;2022-11-20T04:06:04;9.73;;;6.53;;
18933;SDS011;9599;53.706;10.384;2022-11-20T04:08:32;10.03;;;6.53;;
18933;SDS011;9599;53.706;10.384;2022-11-20T04:11:10;11.03;;;6.63;;
18933;SDS011;9599;53.706;10.384;2022-11-20T04:13:39;12.70;;;6.43;;
18933;SDS011;9599;53.706;10.384;2022-11-20T04:16:08;10.43;;;6.73;;
18933;SDS011;9599;53.706;10.384;2022-11-20T04:18:37;10.53;;;6.53;;
18933;SDS011;9599;53.706;10.384;2022-11-20T04:21:06;9.83;;;6.53;;
18933;SDS011;9599;53.706;10.384;2022-11-20T04:23:34;11.13;;;6.50;;
18933;SDS011;9599;53.706;10.384;2022-11-20T04:26:02;9.47;;;6.57;;
18933;SDS011;9599;53.706;10.384;2022-11-20T04:28:31;10.83;;;6.57;;
18933;SDS011;9599;53.706;10.384;2022-11-20T04:31:03;11.70;;;6.90;;
18933;SDS011;9599;53.706;10.384;2022-11-20T04:33:31;12.27;;;6.13;;
18933;SDS011;9599;53.706;10.384;2022-11-20T04:36:02;11.63;;;6.53;;
18933;SDS011;9599;53.706;10.384;2022-11-20T04:38:33;9.53;;;6.17;;
18933;SDS011;9599;53.706;10.384;2022-11-20T04:41:02;11.47;;;6.40;;
18933;SDS011;9599;53.706;10.384;2022-11-20T04:43:31;10.83;;;6.70;;
18933;SDS011;9599;53.706;10.384;2022-11-20T04:46:00;12.23;;;6.73;;
18933;SDS011;9599;53.706;10.384;2022-11-20T04:48:28;11.23;;;6.53;;
18933;SDS011;9599;53.706;10.384;2022-11-20T04:50:56;9.67;;;5.97;;
18933;SDS011;9599;53.706;10.384;2022-11-20T04:53:24;11.27;;;6.50;;
18933;SDS011;9599;53.706;10.384;2022-11-20T04:55:59;8.53;;;6.30;;
18933;SDS011;9599;53.706;10.384;2022-11-20T04:58:27;12.40;;;6.90;;
18933;SDS011;9599;53.706;10.384;2022-11-20T05:01:00;9.10;;;6.20;;
18933;SDS011;9599;53.706;10.384;2022-11-20T05:03:29;10.63;;;6.83;;
18933;SDS011;9599;53.706;10.384;2022-11-20T05:05:59;9.27;;;6.50;;
18933;SDS011;9599;53.706;10.384;2022-11-20T05:08:27;8.90;;;6.03;;
18933;SDS011;9599;53.706;10.384;2022-11-20T05:11:00;9.67;;;6.33;;
18933;SDS011;9599;53.706;10.384;2022-11-20T05:13:28;10.80;;;6.63;;
18933;SDS011;9599;53.706;10.384;2022-11-20T05:16:00;12.40;;;6.40;;
18933;SDS011;9599;53.706;10.384;2022-11-20T05:18:29;9.70;;;6.37;;
18933;SDS011;9599;53.706;10.384;2022-11-20T05:20:57;8.77;;;6.03;;
18933;SDS011;9599;53.706;10.384;2022-11-20T05:23:25;9.40;;;6.43;;
18933;SDS011;9599;53.706;10.384;2022-11-20T05:25:54;9.47;;;6.30;;
18933;SDS011;9599;53.706;10.384;2022-11-20T05:28:26;10.20;;;6.70;;
18933;SDS011;9599;53.706;10.384;2022-11-20T05:30:55;9.10;;;6.23;;
18933;SDS011;9599;53.706;10.384;2022-11-20T05:33:23;11.50;;;6.50;;
18933;SDS011;9599;53.706;10.384;2022-11-20T05:35:51;11.03;;;6.47;;
18933;SDS011;9599;53.706;10.384;2022-11-20T05:38:19;12.33;;;6.53;;
18933;SDS011;9599;53.706;10.384;2022-11-20T05:40:47;11.00;;;7.07;;
18933;SDS011;9599;53.706;10.384;2022-11-20T05:43:15;9.03;;;6.27;;
18933;SDS011;9599;53.706;10.384;2022-11-20T05:45:50;10.00;;;6.70;;
18933;SDS011;9599;53.706;10.384;2022-11-20T05:48:19;12.20;;;6.97;;
18933;SDS011;9599;53.706;10.384;2022-11-20T05:50:47;9.87;;;6.50;;
18933;SDS011;9599;53.706;10.384;2022-11-20T05:53:15;10.23;;;6.60;;
18933;SDS011;9599;53.706;10.384;2022-11-20T05:55:43;12.17;;;6.50;;
18933;SDS011;9599;53.706;10.384;2022-11-20T05:58:11;11.73;;;6.60;;
18933;SDS011;9599;53.706;10.384;2022-11-20T06:00:39;12.50;;;6.80;;
18933;SDS011;9599;53.706;10.384;2022-11-20T06:03:08;9.20;;;6.50;;
18933;SDS011;9599;53.706;10.384;2022-11-20T06:05:36;10.83;;;6.87;;
18933;SDS011;9599;53.706;10.384;2022-11-20T06:08:04;10.40;;;6.73;;
18933;SDS011;9599;53.706;10.384;2022-11-20T06:10:32;11.83;;;7.33;;
18933;SDS011;9599;53.706;10.384;2022-11-20T06:13:00;10.50;;;6.90;;
18933;SDS011;9599;53.706;10.384;2022-11-20T06:15:28;10.03;;;6.43;;
18933;SDS011;9599;53.706;10.384;2022-11-20T06:17:56;12.13;;;7.20;;
18933;SDS011;9599;53.706;10.384;2022-11-20T06:20:26;10.90;;;6.80;;
18933;SDS011;9599;53.706;10.384;2022-11-20T06:22:54;10.93;;;6.63;;
18933;SDS011;9599;53.706;10.384;2022-11-20T06:25:22;11.60;;;6.73;;
18933;SDS011;9599;53.706;10.384;2022-11-20T06:27:50;10.60;;;7.00;;
18933;SDS011;9599;53.706;10.384;2022-11-20T06:30:18;11.60;;;6.83;;
18933;SDS011;9599;53.706;10.384;2022-11-20T06:32:46;11.50;;;7.47;;
18933;SDS011;9599;53.706;10.384;2022-11-20T06:35:14;14.90;;;7.10;;
18933;SDS011;9599;53.706;10.384;2022-11-20T06:37:43;10.27;;;7.00;;
18933;SDS011;9599;53.706;10.384;2022-11-20T06:40:11;13.67;;;7.10;;
18933;SDS011;9599;53.706;10.384;2022-11-20T06:42:40;10.50;;;6.60;;
18933;SDS011;9599;53.706;10.384;2022-11-20T06:45:08;11.53;;;7.43;;
18933;SDS011;9599;53.706;10.384;2022-11-20T06:47:36;10.23;;;6.80;;
18933;SDS011;9599;53.706;10.384;2022-11-20T06:50:04;10.87;;;7.67;;
18933;SDS011;9599;53.706;10.384;2022-11-20T06:52:33;13.87;;;6.93;;
18933;SDS011;9599;53.706;10.384;2022-11-20T06:55:10;11.23;;;6.73;;
18933;SDS011;9599;53.706;10.384;2022-11-20T06:57:37;13.87;;;7.30;;
18933;SDS011;9599;53.706;10.384;2022-11-20T07:00:06;11.57;;;6.87;;
18933;SDS011;9599;53.706;10.384;2022-11-20T07:02:34;11.03;;;6.87;;
18933;SDS011;9599;53.706;10.384;2022-11-20T07:05:02;11.27;;;6.73;;
18933;SDS011;9599;53.706;10.384;2022-11-20T07:07:30;12.53;;;7.17;;
18933;SDS011;9599;53.706;10.384;2022-11-20T07:09:58;12.47;;;7.00;;
18933;SDS011;9599;53.706;10.384;2022-11-20T07:12:27;11.37;;;6.57;;
18933;SDS011;9599;53.706;10.384;2022-11-20T07:14:55;10.87;;;7.10;;
18933;SDS011;9599;53.706;10.384;2022-11-20T07:17:24;9.70;;;6.83;;
18933;SDS011;9599;53.706;10.384;2022-11-20T07:19:51;11.63;;;7.23;;
18933;SDS011;9599;53.706;10.384;2022-11-20T07:22:19;11.23;;;7.33;;
18933;SDS011;9599;53.706;10.384;2022-11-20T07:24:47;12.00;;;7.30;;
18933;SDS011;9599;53.706;10.384;2022-11-20T07:27:15;11.37;;;7.53;;
18933;SDS011;9599;53.706;10.384;2022-11-20T07:29:44;11.50;;;6.90;;
18933;SDS011;9599;53.706;10.384;2022-11-20T07:32:12;11.70;;;7.50;;
18933;SDS011;9599;53.706;10.384;2022-11-20T07:34:40;12.70;;;8.10;;
18933;SDS011;9599;53.706;10.384;2022-11-20T07:37:08;12.10;;;7.47;;
18933;SDS011;9599;53.706;10.384;2022-11-20T07:39:36;11.70;;;7.07;;
18933;SDS011;9599;53.706;10.384;2022-11-20T07:42:04;12.73;;;7.30;;
18933;SDS011;9599;53.706;10.384;2022-11-20T07:44:36;9.70;;;6.90;;
18933;SDS011;9599;53.706;10.384;2022-11-20T07:47:05;12.30;;;7.77;;
18933;SDS011;9599;53.706;10.384;2022-11-20T07:49:33;11.77;;;6.60;;
18933;SDS011;9599;53.706;10.384;2022-11-20T07:52:01;11.27;;;7.40;;
18933;SDS011;9599;53.706;10.384;2022-11-20T07:54:30;13.40;;;7.90;;
18933;SDS011;9599;53.706;10.384;2022-11-20T07:56:58;13.97;;;8.03;;
18933;SDS011;9599;53.706;10.384;2022-11-20T07:59:26;13.13;;;8.03;;
18933;SDS011;9599;53.706;10.384;2022-11-20T08:01:54;14.30;;;8.67;;
18933;SDS011;9599;53.706;10.384;2022-11-20T08:04:23;16.60;;;9.63;;
18933;SDS011;9599;53.706;10.384;2022-11-20T08:06:51;16.60;;;10.53;;
18933;SDS011;9599;53.706;10.384;2022-11-20T08:09:19;19.43;;;11.83;;
18933;SDS011;9599;53.706;10.384;2022-11-20T08:11:48;18.27;;;10.63;;
18933;SDS011;9599;53.706;10.384;2022-11-20T08:14:33;17.53;;;10.53;;
18933;SDS011;9599;53.706;10.384;2022-11-20T08:17:01;24.97;;;12.83;;
18933;SDS011;9599;53.706;10.384;2022-11-20T08:19:30;21.90;;;12.03;;
18933;SDS011;9599;53.706;10.384;2022-11-20T08:21:59;22.30;;;12.87;;
18933;SDS011;9599;53.706;10.384;2022-11-20T08:24:26;16.60;;;10.47;;
18933;SDS011;9599;53.706;10.384;2022-11-20T08:26:56;14.57;;;9.80;;
18933;SDS011;9599;53.706;10.384;2022-11-20T08:29:25;15.63;;;10.03;;
18933;SDS011;9599;53.706;10.384;2022-11-20T08:31:53;18.73;;;10.37;;
18933;SDS011;9599;53.706;10.384;2022-11-20T08:34:21;17.30;;;11.13;;
18933;SDS011;9599;53.706;10.384;2022-11-20T08:36:50;18.67;;;11.97;;
18933;SDS011;9599;53.706;10.384;2022-11-20T08:39:18;23.10;;;13.73;;
18933;SDS011;9599;53.706;10.384;2022-11-20T08:41:46;17.77;;;10.67;;
18933;SDS011;9599;53.706;10.384;2022-11-20T08:44:14;15.17;;;9.80;;
18933;SDS011;9599;53.706;10.384;2022-11-20T08:46:42;15.20;;;8.97;;
18933;SDS011;9599;53.706;10.384;2022-11-20T08:49:12;14.07;;;9.10;;
18933;SDS011;9599;53.706;10.384;2022-11-20T08:51:41;17.73;;;10.00;;
18933;SDS011;9599;53.706;10.384;2022-11-20T08:54:11;15.53;;;8.90;;
18933;SDS011;9599;53.706;10.384;2022-11-20T08:56:39;15.10;;;9.40;;
18933;SDS011;9599;53.706;10.384;2022-11-20T08:59:07;15.17;;;8.73;;
18933;SDS011;9599;53.706;10.384;2022-11-20T09:01:55;17.17;;;8.97;;
18933;SDS011;9599;53.706;10.384;2022-11-20T09:04:23;10.70;;;8.17;;
18933;SDS011;9599;53.706;10.384;2022-11-20T09:06:51;13.63;;;9.23;;
18933;SDS011;9599;53.706;10.384;2022-11-20T09:09:20;18.53;;;10.80;;
18933;SDS011;9599;53.706;10.384;2022-11-20T09:11:48;12.33;;;8.57;;
18933;SDS011;9599;53.706;10.384;2022-11-20T09:14:17;17.00;;;10.90;;
18933;SDS011;9599;53.706;10.384;2022-11-20T09:16:45;13.50;;;9.90;;
18933;SDS011;9599;53.706;10.384;2022-11-20T09:19:13;12.70;;;8.33;;
18933;SDS011;9599;53.706;10.384;2022-11-20T09:22:01;11.03;;;6.90;;
18933;SDS011;9599;53.706;10.384;2022-11-20T09:24:30;13.83;;;8.67;;
18933;SDS011;9599;53.706;10.384;2022-11-20T09:27:00;13.70;;;9.20;;
18933;SDS011;9599;53.706;10.384;2022-11-20T09:29:29;12.57;;;7.67;;
18933;SDS011;9599;53.706;10.384;2022-11-20T09:31:57;13.67;;;8.30;;
18933;SDS011;9599;53.706;10.384;2022-11-20T09:34:25;13.43;;;8.63;;
18933;SDS011;9599;53.706;10.384;2022-11-20T09:36:53;15.53;;;9.33;;
18933;SDS011;9599;53.706;10.384;2022-11-20T09:39:21;11.47;;;7.40;;
18933;SDS011;9599;53.706;10.384;2022-11-20T09:41:58;14.20;;;8.23;;
18933;SDS011;9599;53.706;10.384;2022-11-20T09:44:40;11.90;;;7.70;;
18933;SDS011;9599;53.706;10.384;2022-11-20T09:47:20;11.30;;;6.83;;
18933;SDS011;9599;53.706;10.384;2022-11-20T09:50:01;11.47;;;6.73;;
18933;SDS011;9599;53.706;10.384;2022-11-20T09:52:43;10.40;;;7.00;;
18933;SDS011;9599;53.706;10.384;2022-11-20T09:55:17;13.00;;;7.70;;
18933;SDS011;9599;53.706;10.384;2022-11-20T09:57:47;10.27;;;6.97;;
18933;SDS011;9599;53.706;10.384;2022-11-20T10:00:18;13.73;;;8.67;;
18933;SDS011;9599;53.706;10.384;2022-11-20T10:02:47;11.47;;;7.70;;
18933;SDS011;9599;53.706;10.384;2022-11-20T10:05:21;12.43;;;8.10;;
18933;SDS011;9599;53.706;10.384;2022-11-20T10:07:53;11.07;;;7.07;;
18933;SDS011;9599;53.706;10.384;2022-11-20T10:10:30;11.17;;;6.73;;
18933;SDS011;9599;53.706;10.384;2022-11-20T10:13:17;12.00;;;7.67;;
18933;SDS011;9599;53.706;10.384;2022-11-20T10:15:57;13.40;;;7.73;;
18933;SDS011;9599;53.706;10.384;2022-11-20T10:18:38;11.30;;;6.90;;
18933;SDS011;9599;53.706;10.384;2022-11-20T10:21:14;12.43;;;7.53;;
18933;SDS011;9599;53.706;10.384;2022-11-20T10:24:23;11.60;;;7.23;;
18933;SDS011;9599;53.706;10.384;2022-11-20T10:27:30;11.07;;;6.53;;
18933;SDS011;9599;53.706;10.384;2022-11-20T10:30:11;10.37;;;6.80;;
18933;SDS011;9599;53.706;10.384;2022-11-20T10:32:42;9.67;;;6.43;;
18933;SDS011;9599;53.706;10.384;2022-11-20T10:35:18;9.87;;;6.57;;
18933;SDS011;9599;53.706;10.384;2022-11-20T10:37:49;12.57;;;6.97;;
18933;SDS011;9599;53.706;10.384;2022-11-20T10:40:23;10.80;;;6.93;;
18933;SDS011;9599;53.706;10.384;2022-11-20T10:42:57;10.73;;;6.90;;
18933;SDS011;9599;53.706;10.384;2022-11-20T10:45:32;10.80;;;6.70;;
18933;SDS011;9599;53.706;10.384;2022-11-20T10:48:14;10.33;;;6.27;;
18933;SDS011;9599;53.706;10.384;2022-11-20T10:51:02;11.27;;;7.03;;
18933;SDS011;9599;53.706;10.384;2022-11-20T10:53:47;11.10;;;7.17;;
18933;SDS011;9599;53.706;10.384;2022-11-20T10:56:24;11.00;;;7.17;;
18933;SDS011;9599;53.706;10.384;2022-11-20T11:01:53;12.93;;;8.97;;
18933;SDS011;9599;53.706;10.384;2022-11-20T11:04:28;9.40;;;6.67;;
18933;SDS011;9599;53.706;10.384;2022-11-20T11:07:05;9.20;;;5.90;;
18933;SDS011;9599;53.706;10.384;2022-11-20T11:09:39;10.37;;;7.00;;
18933;SDS011;9599;53.706;10.384;2022-11-20T11:12:10;12.10;;;7.43;;
18933;SDS011;9599;53.706;10.384;2022-11-20T11:14:42;8.63;;;6.00;;
18933;SDS011;9599;53.706;10.384;2022-11-20T11:17:25;7.37;;;5.27;;
18933;SDS011;9599;53.706;10.384;2022-11-20T11:19:58;7.87;;;5.80;;
18933;SDS011;9599;53.706;10.384;2022-11-20T11:22:32;9.40;;;6.40;;
18933;SDS011;9599;53.706;10.384;2022-11-20T11:25:01;7.23;;;5.57;;
18933;SDS011;9599;53.706;10.384;2022-11-20T11:27:29;9.27;;;6.57;;
18933;SDS011;9599;53.706;10.384;2022-11-20T11:30:11;7.77;;;5.23;;
18933;SDS011;9599;53.706;10.384;2022-11-20T11:32:43;7.50;;;5.27;;
18933;SDS011;9599;53.706;10.384;2022-11-20T11:35:21;6.67;;;4.70;;
18933;SDS011;9599;53.706;10.384;2022-11-20T11:37:52;6.63;;;4.93;;
18933;SDS011;9599;53.706;10.384;2022-11-20T11:40:29;6.90;;;4.67;;
18933;SDS011;9599;53.706;10.384;2022-11-20T11:43:01;7.13;;;5.10;;
18933;SDS011;9599;53.706;10.384;2022-11-20T11:45:31;8.13;;;5.70;;
18933;SDS011;9599;53.706;10.384;2022-11-20T11:48:00;6.17;;;4.77;;
18933;SDS011;9599;53.706;10.384;2022-11-20T11:50:30;6.30;;;4.87;;
18933;SDS011;9599;53.706;10.384;2022-11-20T11:53:01;7.67;;;5.40;;
18933;SDS011;9599;53.706;10.384;2022-11-20T11:55:36;6.73;;;5.10;;
18933;SDS011;9599;53.706;10.384;2022-11-20T11:58:11;7.00;;;4.83;;
18933;SDS011;9599;53.706;10.384;2022-11-20T12:00:49;8.03;;;6.20;;
18933;SDS011;9599;53.706;10.384;2022-11-20T12:03:23;5.63;;;4.50;;
18933;SDS011;9599;53.706;10.384;2022-11-20T12:05:56;6.67;;;4.90;;
18933;SDS011;9599;53.706;10.384;2022-11-20T12:08:27;7.33;;;5.60;;
18933;SDS011;9599;53.706;10.384;2022-11-20T12:11:02;5.43;;;4.30;;
18933;SDS011;9599;53.706;10.384;2022-11-20T12:13:39;6.73;;;4.83;;
18933;SDS011;9599;53.706;10.384;2022-11-20T12:16:11;5.77;;;4.60;;
18933;SDS011;9599;53.706;10.384;2022-11-20T12:18:42;10.57;;;6.60;;
18933;SDS011;9599;53.706;10.384;2022-11-20T12:21:15;11.10;;;7.10;;
18933;SDS011;9599;53.706;10.384;2022-11-20T12:24:03;11.20;;;7.90;;
18933;SDS011;9599;53.706;10.384;2022-11-20T12:26:48;5.77;;;4.63;;
18933;SDS011;9599;53.706;10.384;2022-11-20T12:29:28;7.27;;;5.60;;
18933;SDS011;9599;53.706;10.384;2022-11-20T12:32:17;5.80;;;4.47;;
18933;SDS011;9599;53.706;10.384;2022-11-20T12:35:17;6.10;;;4.57;;
18933;SDS011;9599;53.706;10.384;2022-11-20T12:38:04;5.57;;;4.47;;
18933;SDS011;9599;53.706;10.384;2022-11-20T12:40:50;5.73;;;4.87;;
18933;SDS011;9599;53.706;10.384;2022-11-20T12:43:27;5.77;;;4.70;;
18933;SDS011;9599;53.706;10.384;2022-11-20T12:46:18;6.20;;;4.70;;
18933;SDS011;9599;53.706;10.384;2022-11-20T12:49:13;5.67;;;4.47;;
18933;SDS011;9599;53.706;10.384;2022-11-20T12:52:03;6.60;;;4.70;;
18933;SDS011;9599;53.706;10.384;2022-11-20T12:57:36;6.53;;;4.50;;
18933;SDS011;9599;53.706;10.384;2022-11-20T13:00:12;8.07;;;3.83;;
18933;SDS011;9599;53.706;10.384;2022-11-20T13:02:56;6.00;;;4.40;;
18933;SDS011;9599;53.706;10.384;2022-11-20T13:05:37;5.63;;;4.47;;
18933;SDS011;9599;53.706;10.384;2022-11-20T13:08:16;6.60;;;5.90;;
18933;SDS011;9599;53.706;10.384;2022-11-20T13:10:49;5.27;;;4.37;;
18933;SDS011;9599;53.706;10.384;2022-11-20T13:13:25;7.57;;;5.50;;
18933;SDS011;9599;53.706;10.384;2022-11-20T13:15:59;8.77;;;6.43;;
18933;SDS011;9599;53.706;10.384;2022-11-20T13:18:34;6.57;;;5.00;;
18933;SDS011;9599;53.706;10.384;2022-11-20T13:21:13;5.93;;;4.57;;
18933;SDS011;9599;53.706;10.384;2022-11-20T13:24:18;5.40;;;4.90;;
18933;SDS011;9599;53.706;10.384;2022-11-20T13:26:59;4.43;;;3.63;;
18933;SDS011;9599;53.706;10.384;2022-11-20T13:29:28;5.33;;;3.87;;
18933;SDS011;9599;53.706;10.384;2022-11-20T13:32:04;4.67;;;3.53;;
18933;SDS011;9599;53.706;10.384;2022-11-20T13:34:33;4.30;;;3.80;;
18933;SDS011;9599;53.706;10.384;2022-11-20T13:37:02;4.43;;;4.03;;
18933;SDS011;9599;53.706;10.384;2022-11-20T13:39:33;3.90;;;3.50;;
18933;SDS011;9599;53.706;10.384;2022-11-20T13:42:03;3.90;;;3.33;;
18933;SDS011;9599;53.706;10.384;2022-11-20T13:44:53;5.07;;;4.33;;
18933;SDS011;9599;53.706;10.384;2022-11-20T13:47:22;4.50;;;3.80;;
18933;SDS011;9599;53.706;10.384;2022-11-20T13:49:51;8.80;;;6.40;;
18933;SDS011;9599;53.706;10.384;2022-11-20T13:52:33;7.33;;;4.50;;
18933;SDS011;9599;53.706;10.384;2022-11-20T13:55:15;3.87;;;3.10;;
18933;SDS011;9599;53.706;10.384;2022-11-20T13:57:54;7.33;;;5.80;;
18933;SDS011;9599;53.706;10.384;2022-11-20T14:00:43;10.57;;;8.30;;
18933;SDS011;9599;53.706;10.384;2022-11-20T14:03:15;7.87;;;4.50;;
18933;SDS011;9599;53.706;10.384;2022-11-20T14:06:10;5.37;;;4.13;;
18933;SDS011;9599;53.706;10.384;2022-11-20T14:08:42;10.50;;;8.23;;
18933;SDS011;9599;53.706;10.384;2022-11-20T14:11:15;5.33;;;4.60;;
18933;SDS011;9599;53.706;10.384;2022-11-20T14:13:57;5.60;;;5.10;;
18933;SDS011;9599;53.706;10.384;2022-11-20T14:16:28;6.50;;;5.67;;
18933;SDS011;9599;53.706;10.384;2022-11-20T14:18:57;4.47;;;3.77;;
18933;SDS011;9599;53.706;10.384;2022-11-20T14:21:46;6.43;;;5.17;;
18933;SDS011;9599;53.706;10.384;2022-11-20T14:24:18;8.60;;;7.50;;
18933;SDS011;9599;53.706;10.384;2022-11-20T14:26:49;11.60;;;9.67;;
18933;SDS011;9599;53.706;10.384;2022-11-20T14:29:19;6.70;;;5.23;;
18933;SDS011;9599;53.706;10.384;2022-11-20T14:31:51;8.60;;;6.30;;
18933;SDS011;9599;53.706;10.384;2022-11-20T14:34:21;8.00;;;6.27;;
18933;SDS011;9599;53.706;10.384;2022-11-20T14:36:52;7.10;;;5.60;;
18933;SDS011;9599;53.706;10.384;2022-11-20T14:39:25;11.30;;;7.20;;
18933;SDS011;9599;53.706;10.384;2022-11-20T14:41:59;10.00;;;6.93;;
18933;SDS011;9599;53.706;10.384;2022-11-20T14:44:27;6.27;;;5.10;;
18933;SDS011;9599;53.706;10.384;2022-11-20T14:46:59;8.87;;;5.93;;
18933;SDS011;9599;53.706;10.384;2022-11-20T14:49:29;9.93;;;6.93;;
18933;SDS011;9599;53.706;10.384;2022-11-20T14:51:59;9.63;;;6.87;;
18933;SDS011;9599;53.706;10.384;2022-11-20T14:54:27;10.63;;;6.83;;
18933;SDS011;9599;53.706;10.384;2022-11-20T14:56:57;12.60;;;7.70;;
18933;SDS011;9599;53.706;10.384;2022-11-20T14:59:28;8.97;;;6.60;;
18933;SDS011;9599;53.706;10.384;2022-11-20T15:01:59;17.03;;;10.37;;
18933;SDS011;9599;53.706;10.384;2022-11-20T15:04:28;20.33;;;11.90;;
18933;SDS011;9599;53.706;10.384;2022-11-20T15:06:57;12.23;;;8.67;;
18933;SDS011;9599;53.706;10.384;2022-11-20T15:09:27;7.70;;;5.87;;
18933;SDS011;9599;53.706;10.384;2022-11-20T15:11:56;7.23;;;5.57;;
18933;SDS011;9599;53.706;10.384;2022-11-20T15:14:27;6.03;;;5.00;;